首页
METAR-TAF:

METAR-TAF

机场 :

史密斯堡, 阿肯色州, 美国

纬度: 35-20-01N, 经度: 094-21-54W, 海拔: 142米

当前天气观测

该预报发布于41分钟前的18:53 UTC
风速13节,风向
温度 11°C
湿度 35%
气压 1029 hPa
能見度: 16.1公里
天空无云

METAR: KFSM 191853Z 10013KT 10SM CLR 11/M04 A3039 RMK AO2 SLP292 T01061039

时间: 13:34 (19:34 UTC)

预报

该预报发布于1小时和56分钟前的17:38 UTC
预报有效从19日的 18点(UTC)到 20日的 18点(UTC)
风速13节,风向东转东北,有时为22节阵风
能見度: 10公里
散云层高于10000英尺
从 20日的 0100点(UTC)
风速5节,风向东北
能見度: 10公里
多云层高于5000英尺
几率 30%
从 20日的 06点(UTC)到 20日的 09点(UTC)
能見度: 6.4公里
多云层高于3000英尺
小雨
从 20日的 0900点(UTC)
风速9节,风向北转东北
能見度: 10公里
多云层高于3000英尺
几率 30%
从 20日的 09点(UTC)到 20日的 12点(UTC)
能見度: 6.4公里
多云层高于2000英尺
小雨
从 20日的 1600点(UTC)
风速11节,风向北转东北
能見度: 10公里
多云层高于10000英尺

TAF: KFSM 191738Z 1918/2018 06013G22KT P6SM SCT100 FM200100 04005KT P6SM BKN050 PROB30 2006/2009 4SM -RA BKN030 FM200900 03009KT P6SM BKN030 PROB30 2009/2012 4SM -RA BKN020 FM201600 03011KT P6SM BKN100

超过4000个机场的气象观测和天气预报(METAR&TAF报告)。

可查询的气象台以黄色和红色小点在地图上表示。

将鼠标移到小点上方,可查看气象台名称。

然后点击查看天气观测和预报。

如需切换地图:点击带黑十字的绿色按钮放大地图;点击带横线的绿色按钮缩小地图;或者点击绿色箭头查看邻近地区的地图。


METAR-TAF: